Time;durP1;ratioP1;P1;durP2;ratioP2;P2;SDS_P1;SDS_P2;PMS_P1;PMS_P2;Temp;Humidity;BMP_temperature;BMP_pressure;BME280_temperature;BME280_humidity;BME280_pressure;Samples;Min_cycle;Max_cycle;Signal;HPM_P1;HPM_P2
2021/11/30 00:02:30;;;;;;;13.40;10.40;;;;;;;-0.12;88.04;97999.17;420250;1312;142408;-55
2021/11/30 00:12:37;;;;;;;12.70;9.70;;;;;;;-0.14;87.92;98008.89;420350;1313;142173;-56
2021/11/30 00:22:44;;;;;;;11.80;8.20;;;;;;;-0.11;87.81;98019.25;420020;1312;142858;-56
2021/11/30 00:32:50;;;;;;;10.40;8.00;;;;;;;-0.09;87.86;98032.08;421295;1306;141217;-58
2021/11/30 00:42:59;;;;;;;12.20;9.70;;;;;;;-0.11;88.04;98040.59;426511;1308;145571;-56
2021/11/30 00:53:05;;;;;;;8.40;6.60;;;;;;;-0.16;87.67;98053.34;435619;1310;141886;-56
2021/11/30 01:03:12;;;;;;;7.70;6.10;;;;;;;-0.14;87.88;98064.63;434807;1310;142663;-57
2021/11/30 01:13:19;;;;;;;6.10;5.60;;;;;;;-0.17;87.77;98072.85;433079;1313;142669;-56
2021/11/30 01:23:26;;;;;;;6.30;5.70;;;;;;;-0.17;87.55;98079.21;433732;1306;141173;-55
2021/11/30 01:33:35;;;;;;;5.50;5.00;;;;;;;-0.22;87.36;98085.12;433508;1312;140970;-57
2021/11/30 01:43:43;;;;;;;4.80;4.40;;;;;;;-0.21;87.35;98091.77;435600;1309;143075;-58
2021/11/30 01:53:50;;;;;;;4.60;4.20;;;;;;;-0.20;87.38;98098.79;433451;1310;141414;-56
2021/11/30 02:03:56;;;;;;;6.20;4.30;;;;;;;-0.23;86.98;98109.74;435518;1310;146241;-56
2021/11/30 02:14:02;;;;;;;5.10;4.00;;;;;;;-0.26;86.87;98110.58;435431;1309;184518;-57
2021/11/30 02:24:11;;;;;;;5.00;4.50;;;;;;;-0.30;86.95;98117.25;434795;1311;142946;-56
2021/11/30 02:34:18;;;;;;;3.90;3.60;;;;;;;-0.35;86.52;98122.80;435633;1312;142226;-57
2021/11/30 02:44:23;;;;;;;;;;;;;;;-0.36;86.76;98125.77;427967;1313;141286;-56
2021/11/30 02:54:30;;;;;;;5.80;4.50;;;;;;;-0.37;86.57;98131.13;434752;1313;129119;-57
2021/11/30 03:04:36;;;;;;;4.80;4.00;;;;;;;-0.35;86.59;98145.35;434368;1313;142260;-57
2021/11/30 03:14:43;;;;;;;4.20;3.80;;;;;;;-0.37;86.53;98155.38;434996;1312;141451;-57
2021/11/30 03:24:50;;;;;;;4.70;4.10;;;;;;;-0.40;86.33;98157.92;434351;1315;142272;-58
2021/11/30 03:34:55;;;;;;;;;;;;;;;-0.40;86.26;98156.55;433324;1316;141683;-57
2021/11/30 03:45:03;;;;;;;4.10;3.70;;;;;;;-0.50;86.25;98147.16;433072;1310;297394;-58
2021/11/30 03:55:11;;;;;;;5.80;5.10;;;;;;;-0.58;86.35;98142.66;434090;1312;141690;-56
2021/11/30 04:05:35;;;;;;;5.00;4.60;;;;;;;-0.55;86.19;98147.54;428072;1316;141703;-55
2021/11/30 04:15:41;;;;;;;7.60;4.60;;;;;;;-0.54;86.30;98132.53;434764;1308;142172;-57
2021/11/30 04:25:47;;;;;;;8.80;7.20;;;;;;;-0.58;86.14;98137.67;434256;1317;142231;-57
2021/11/30 04:35:53;;;;;;;8.10;7.30;;;;;;;-0.58;86.24;98135.79;434245;1314;144849;-57
2021/11/30 04:46:03;;;;;;;9.60;7.80;;;;;;;-0.58;86.54;98131.52;434906;1312;142024;-57
2021/11/30 04:56:10;;;;;;;12.60;8.60;;;;;;;-0.51;86.34;98129.00;426205;1313;142086;-56
2021/11/30 05:06:15;;;;;;;;;;;;;;;-0.49;86.58;98123.22;432728;1313;142136;-58
2021/11/30 05:16:21;;;;;;;10.10;8.60;;;;;;;-0.48;86.47;98114.93;428264;1314;128037;-55
2021/11/30 05:26:28;;;;;;;8.40;7.50;;;;;;;-0.59;86.10;98117.61;419224;1312;142504;-55
2021/11/30 05:36:35;;;;;;;7.70;6.90;;;;;;;-0.69;85.90;98120.45;424336;1312;145554;-59
2021/11/30 05:46:41;;;;;;;10.90;7.90;;;;;;;-0.74;86.08;98119.95;434216;1312;142253;-58
2021/11/30 05:56:50;;;;;;;7.90;7.20;;;;;;;-0.74;86.02;98114.13;434011;1312;142228;-57
2021/11/30 06:06:56;;;;;;;7.90;7.10;;;;;;;-0.78;85.61;98114.62;433711;1312;141671;-56
2021/11/30 06:17:02;;;;;;;8.80;7.80;;;;;;;-1.02;85.65;98122.44;434723;1313;141919;-57
2021/11/30 06:27:08;;;;;;;8.50;6.10;;;;;;;-1.09;86.04;98129.30;433779;1312;141735;-58
2021/11/30 06:37:16;;;;;;;6.30;5.20;;;;;;;-1.19;85.61;98132.08;434996;1312;141341;-56
2021/11/30 06:47:22;;;;;;;5.90;5.20;;;;;;;-1.48;85.22;98130.27;435255;1312;142560;-58
2021/11/30 06:57:30;;;;;;;5.80;5.20;;;;;;;-1.65;85.54;98120.41;432979;1312;141340;-58
2021/11/30 07:07:47;;;;;;;5.50;4.20;;;;;;;-1.51;85.70;98116.63;435159;1312;142617;-58
2021/11/30 07:18:15;;;;;;;6.40;5.50;;;;;;;-1.08;85.50;98100.54;433317;1311;142210;-56
2021/11/30 07:28:28;;;;;;;7.70;5.40;;;;;;;-0.93;85.02;98093.41;434574;1312;141275;-57
2021/11/30 07:38:35;;;;;;;9.40;7.90;;;;;;;-0.84;85.03;98081.88;435268;1309;143305;-57
2021/11/30 07:48:41;;;;;;;10.00;8.60;;;;;;;-0.67;85.08;98067.80;433415;1311;142335;-60
2021/11/30 07:58:48;;;;;;;12.10;9.80;;;;;;;-0.54;84.87;98049.69;435204;1312;142581;-61
2021/11/30 08:08:55;;;;;;;12.10;8.90;;;;;;;-0.48;84.78;98026.55;425035;1309;144142;-61
2021/11/30 08:19:02;;;;;;;12.40;9.00;;;;;;;-0.50;84.93;98007.05;424598;1310;144795;-60
2021/11/30 08:29:09;;;;;;;12.50;8.20;;;;;;;-0.54;85.23;97982.65;426441;1309;141343;-62
2021/11/30 08:39:16;;;;;;;12.60;10.90;;;;;;;-0.52;85.37;97966.07;434135;1310;143650;-61
2021/11/30 08:49:24;;;;;;;11.40;9.10;;;;;;;-0.45;85.35;97954.73;420195;1309;141489;-63
2021/11/30 08:59:33;;;;;;;12.10;9.10;;;;;;;-0.31;85.18;97935.73;419955;1309;140987;-61
2021/11/30 09:09:39;;;;;;;14.30;10.30;;;;;;;-0.34;85.28;97919.69;419160;1310;141189;-64
2021/11/30 09:19:47;;;;;;;14.10;10.90;;;;;;;-0.31;85.20;97885.50;420457;1308;141974;-69
2021/11/30 09:29:53;;;;;;;18.50;11.80;;;;;;;-0.19;85.31;97860.02;419435;1309;141818;-75
2021/11/30 09:40:01;;;;;;;9.90;7.80;;;;;;;-0.12;84.85;97835.73;419994;1310;141532;-78
2021/11/30 09:50:12;;;;;;;13.30;10.30;;;;;;;0.05;85.23;97814.28;422899;1311;141368;-64
2021/11/30 10:00:19;;;;;;;14.30;11.10;;;;;;;0.29;85.01;97782.80;419068;1310;142891;-64
2021/11/30 10:10:35;;;;;;;16.10;11.80;;;;;;;0.61;84.30;97754.33;421798;1310;141578;-64
2021/11/30 10:20:42;;;;;;;16.20;10.90;;;;;;;0.56;83.99;97728.23;420315;1312;142050;-76
2021/11/30 10:30:51;;;;;;;18.00;14.70;;;;;;;0.61;84.08;97694.05;421067;1310;141495;-76
2021/11/30 10:41:10;;;;;;;19.10;12.50;;;;;;;0.80;83.81;97652.52;420811;1310;198496;-66
2021/11/30 10:51:17;;;;;;;13.80;10.90;;;;;;;0.90;83.70;97624.98;419486;1312;142091;-67
2021/11/30 11:01:26;;;;;;;14.50;12.20;;;;;;;0.96;83.50;97593.81;419979;1309;141912;-67
2021/11/30 11:11:35;;;;;;;17.40;12.50;;;;;;;1.23;83.18;97562.23;420175;1310;141570;-69
2021/11/30 11:21:42;;;;;;;14.50;10.70;;;;;;;1.35;82.78;97528.11;420742;1300;141991;-65
2021/11/30 11:31:51;;;;;;;14.60;9.30;;;;;;;1.16;82.28;97483.76;426466;1307;141616;-66
2021/11/30 11:41:59;;;;;;;13.10;10.10;;;;;;;0.81;82.48;97451.67;429314;1306;209499;-65
2021/11/30 11:52:07;;;;;;;11.90;9.20;;;;;;;0.68;82.48;97427.91;425078;1312;141375;-71
2021/11/30 12:02:21;;;;;;;12.60;10.10;;;;;;;0.62;82.44;97390.21;433048;1311;141262;-75
2021/11/30 12:12:27;;;;;;;12.50;11.20;;;;;;;0.55;82.49;97351.76;434383;1310;143562;-64
2021/11/30 12:22:52;;;;;;;12.90;10.30;;;;;;;0.45;82.58;97321.85;426629;1308;141887;-62
2021/11/30 12:33:00;;;;;;;12.10;9.20;;;;;;;0.34;82.86;97298.21;426874;1309;142237;-62
2021/11/30 12:43:16;;;;;;;9.40;7.30;;;;;;;0.09;83.10;97266.83;420065;1312;143483;-65
2021/11/30 12:53:42;;;;;;;11.30;9.30;;;;;;;-0.16;83.74;97237.60;419852;1309;140628;-58
2021/11/30 13:03:50;;;;;;;12.60;9.90;;;;;;;-0.38;84.47;97204.67;435284;1309;141753;-60
2021/11/30 13:14:04;;;;;;;10.90;8.60;;;;;;;-0.41;84.97;97176.84;435505;1308;142361;-61
2021/11/30 13:24:13;;;;;;;11.80;9.20;;;;;;;-0.51;85.48;97144.04;434682;1309;142222;-62
2021/11/30 13:34:20;;;;;;;10.10;8.00;;;;;;;-0.58;85.49;97124.99;427375;1309;10001899;-63
2021/11/30 13:44:26;;;;;;;10.50;7.40;;;;;;;-0.66;86.06;97108.45;434719;1309;142626;-60
2021/11/30 13:54:36;;;;;;;11.40;8.20;;;;;;;-0.73;86.24;97086.36;433825;1308;141945;-61
2021/11/30 14:04:42;;;;;;;11.00;8.30;;;;;;;-0.73;86.81;97064.18;434505;1307;141917;-64
2021/11/30 14:14:54;;;;;;;11.10;7.50;;;;;;;-0.70;87.01;97043.23;431483;1309;142712;-62
2021/11/30 14:25:03;;;;;;;8.10;6.20;;;;;;;-0.73;87.17;97030.72;435617;1306;142482;-62
2021/11/30 14:35:12;;;;;;;6.00;5.30;;;;;;;-0.73;87.48;97011.27;435635;1309;141550;-63
2021/11/30 14:45:30;;;;;;;7.40;6.00;;;;;;;-0.72;87.77;96991.61;434794;1306;144892;-63
2021/11/30 14:55:37;;;;;;;6.20;5.10;;;;;;;-0.71;87.78;96999.30;434601;1309;141792;-61
2021/11/30 15:05:43;;;;;;;;;;;;;;;-0.67;87.68;96983.79;435845;1307;145172;-59
2021/11/30 15:15:52;;;;;;;4.80;4.10;;;;;;;-0.65;88.07;96979.55;429362;1312;141349;-58
2021/11/30 15:26:01;;;;;;;6.50;4.00;;;;;;;-0.63;87.86;96969.61;435438;1307;141197;-58
2021/11/30 15:36:07;;;;;;;7.50;6.40;;;;;;;-0.59;88.59;96965.46;433431;1312;144089;-59
2021/11/30 15:46:13;;;;;;;8.70;6.90;;;;;;;-0.53;88.47;96961.44;433341;1310;141926;-58
2021/11/30 16:06:43;;;;;;;11.30;8.20;;;;;;;-0.50;88.39;96952.16;435092;1310;141983;-57
2021/11/30 16:16:50;;;;;;;6.10;5.60;;;;;;;-0.44;88.54;96951.48;433637;1312;143332;-58
2021/11/30 16:26:56;;;;;;;8.30;6.40;;;;;;;-0.30;88.72;96943.55;433423;1312;142699;-58
2021/11/30 16:37:04;;;;;;;11.50;9.10;;;;;;;-0.16;88.70;96935.15;433394;1310;142499;-58
2021/11/30 16:47:11;;;;;;;8.30;6.30;;;;;;;-0.02;88.95;96922.59;432574;1309;144333;-58
2021/11/30 16:57:17;;;;;;;6.70;5.90;;;;;;;0.08;88.88;96918.64;420029;1310;141347;-57
2021/11/30 17:07:23;;;;;;;7.10;5.60;;;;;;;0.21;89.01;96908.02;422896;1312;142439;-57
2021/11/30 17:17:29;;;;;;;10.80;6.20;;;;;;;0.30;88.86;96912.73;427268;1310;142119;-58
2021/11/30 17:27:35;;;;;;;6.30;5.00;;;;;;;0.36;88.87;96918.05;429516;1312;142205;-57
2021/11/30 17:37:44;;;;;;;6.90;4.80;;;;;;;0.41;88.85;96924.79;434725;1312;142231;-58
2021/11/30 17:47:52;;;;;;;5.90;3.60;;;;;;;0.45;88.86;96929.41;434048;1309;141717;-58
2021/11/30 17:57:58;;;;;;;8.30;3.80;;;;;;;0.48;88.55;96940.76;433434;1312;141842;-61
2021/11/30 18:08:05;;;;;;;4.30;3.40;;;;;;;0.52;88.59;96946.85;434788;1312;141485;-64
2021/11/30 18:18:13;;;;;;;5.40;4.00;;;;;;;0.63;88.84;96956.60;431025;1312;141056;-64
2021/11/30 18:28:19;;;;;;;5.90;4.80;;;;;;;0.68;88.60;96956.30;432384;1312;141821;-63
2021/11/30 18:38:26;;;;;;;7.40;6.40;;;;;;;0.75;88.80;96959.78;431601;1312;141321;-60
2021/11/30 18:48:32;;;;;;;10.80;6.00;;;;;;;0.86;88.65;96968.39;420989;1312;141399;-59
2021/11/30 18:58:38;;;;;;;10.00;6.20;;;;;;;0.89;88.59;96975.46;434671;1312;140873;-60
2021/11/30 19:08:44;;;;;;;6.60;5.30;;;;;;;0.89;88.55;96987.13;434864;1312;142956;-60
2021/11/30 19:18:51;;;;;;;9.60;5.60;;;;;;;0.90;88.63;96999.10;435425;1312;210920;-59
2021/11/30 19:28:57;;;;;;;8.40;6.00;;;;;;;0.98;88.64;97011.52;434227;1309;141724;-60
2021/11/30 19:39:08;;;;;;;8.20;5.50;;;;;;;1.01;88.58;97025.23;428103;1309;142672;-65
2021/11/30 19:49:16;;;;;;;8.70;6.10;;;;;;;0.98;88.40;97019.43;435399;1309;300441;-61
2021/11/30 19:59:23;;;;;;;9.30;5.30;;;;;;;0.97;88.60;97027.92;434825;1309;141547;-59
2021/11/30 20:09:29;;;;;;;11.40;6.30;;;;;;;0.95;88.47;97037.17;430831;1309;142238;-61
2021/11/30 20:19:35;;;;;;;7.40;5.40;;;;;;;0.94;88.43;97052.09;434795;1312;141862;-60
2021/11/30 20:29:42;;;;;;;6.30;5.60;;;;;;;0.81;88.31;97061.53;435721;1308;140905;-60
2021/11/30 20:39:51;;;;;;;6.90;6.10;;;;;;;0.75;88.42;97083.44;435914;1309;140844;-59
2021/11/30 20:49:58;;;;;;;10.50;5.80;;;;;;;0.73;88.58;97098.05;427224;1310;143669;-60
2021/11/30 21:00:07;;;;;;;7.30;4.40;;;;;;;0.73;88.70;97104.05;435315;1310;142155;-60
2021/11/30 21:10:16;;;;;;;7.10;4.70;;;;;;;0.82;88.82;97124.14;423049;1310;141503;-61
2021/11/30 21:20:24;;;;;;;5.60;3.90;;;;;;;0.98;89.02;97144.84;435965;1313;141835;-61
2021/11/30 21:30:31;;;;;;;7.30;4.00;;;;;;;1.07;89.04;97163.58;434507;1309;142945;-59
2021/11/30 21:40:38;;;;;;;9.00;4.00;;;;;;;1.12;88.96;97184.98;435894;1310;143400;-60
2021/11/30 21:50:45;;;;;;;4.90;3.70;;;;;;;1.18;88.90;97198.24;432119;1314;142144;-59
2021/11/30 22:00:51;;;;;;;4.70;2.70;;;;;;;1.21;88.95;97229.23;431187;1310;206340;-60
2021/11/30 22:10:57;;;;;;;3.10;2.50;;;;;;;1.26;88.89;97256.99;435812;1316;142073;-60
2021/11/30 22:21:04;;;;;;;4.00;2.10;;;;;;;1.31;88.79;97275.98;434449;1309;140813;-59
2021/11/30 22:31:10;;;;;;;4.20;2.60;;;;;;;1.36;88.65;97303.28;435784;1310;141859;-60
2021/11/30 22:41:16;;;;;;;4.50;2.60;;;;;;;1.35;88.51;97328.67;435849;1309;141528;-61
2021/11/30 22:51:22;;;;;;;4.00;2.30;;;;;;;1.31;88.43;97352.16;434970;1310;143178;-58
2021/11/30 23:01:28;;;;;;;3.70;2.20;;;;;;;1.28;88.59;97368.39;425494;1309;141835;-59
2021/11/30 23:11:35;;;;;;;4.80;2.60;;;;;;;1.24;88.32;97385.23;435805;1303;142176;-58
2021/11/30 23:21:41;;;;;;;2.50;2.30;;;;;;;1.18;88.41;97408.47;433432;1310;142139;-58
2021/11/30 23:31:47;;;;;;;2.00;1.80;;;;;;;1.10;88.41;97427.88;419387;1310;199580;-62
2021/11/30 23:41:53;;;;;;;2.40;2.20;;;;;;;1.08;88.43;97452.63;433096;1309;141098;-60
2021/11/30 23:52:00;;;;;;;2.50;2.30;;;;;;;1.07;88.73;97478.05;419930;1310;141636;-60
